METAR stanice u blizini

 

LYBE - Beograd / Surčin, Srbija
Ažurirano: 04/02/2023 09:00
Slaba kiša, Pretežno oblačno
Slaba kiša, Pretežno oblačno
 Pravac vetra ZSZ
Vetar: ZSZ 24 km/h
Temperatura: 5°C
Osećaj hladnoće: 1°C
Tačka rose: 3°C
Vlažnost: 87%
Pritisak: 1015 hPa
Pregled: Light Rain
Oblaci: Mostly Cloudy
Vidljivost: 10 km
Cloud details: Partly Cloudy 610 m
Mostly Cloudy 914 m
2023/02/04 08:00 LYBE 040800Z 29013KT 9999 -RA SCT020 BKN030 05/03 Q1015 TEMPO FM0900 33025G40KT
LYBT - Beograd / Batajnica, Srbija
Ažurirano: 04/02/2023 09:00
Slaba kiša, Pretežno oblačno
Slaba kiša, Pretežno oblačno
 Pravac vetra Z
Vetar: Z 15 km/h
Temperatura: 5°C
Osećaj hladnoće: 2°C
Tačka rose: 4°C
Vlažnost: 93%
Pritisak: 1015 hPa
Pregled: Light Rain
Oblaci: Mostly Cloudy
Vidljivost: 10 km
Cloud details: Few Clouds 457 m
Mostly Cloudy 1219 m
2023/02/04 08:00 LYBT 040800Z 28008KT 250V310 9999 -RA FEW015 BKN040 05/04 Q1015 TEMPO FM0900 32020G35KT
LYVR - Vršac, Srbija
Ažurirano: 04/02/2023 09:00
Slaba kiša, Oblačno
Slaba kiša, Oblačno
 Pravac vetra ZSZ
Vetar: ZSZ 20 km/h
Temperatura: 5°C
Osećaj hladnoće: 1°C
Tačka rose: 4°C
Vlažnost: 93%
Pritisak: 1014 hPa
Pregled: Light Rain
Oblaci: Oblačno
Vidljivost: 10 km
Cloud details: Mostly Cloudy 549 m
Oblačno 701 m
2023/02/04 08:00 LYVR 040800Z AUTO 30011KT 270V340 9999 -RA BKN018/// OVC023/// 05/04 Q1014
 
LYKV - Lađevci, Srbija
Ažurirano: 04/02/2023 09:00
Padavine, Oblačno
Padavine, Oblačno
 Pravac vetra SZ
Vetar: SZ 6 km/h
Temperatura: 4°C
Tačka rose: 4°C
Vlažnost: 100%
Pritisak: 1016 hPa
Pregled: Padavine
Oblaci: Oblačno
Vidljivost: 8 km
Cloud details: Mostly Cloudy 518 m
Oblačno 762 m
2023/02/04 08:00 LYKV 040800Z 32003KT 260V010 8000 RA BKN017 OVC025 04/04 Q1016 TEMPO 5000 RA
LYNI - Niš, Srbija
Ažurirano: 04/02/2023 09:00
Slaba kiša, Pretežno oblačno
Slaba kiša, Pretežno oblačno
 Pravac vetra Z
Vetar: Z 7 km/h
Temperatura: 4°C
Osećaj hladnoće: 2°C
Tačka rose: 3°C
Vlažnost: 93%
Pritisak: 1015 hPa
Pregled: Light Rain
Oblaci: Mostly Cloudy
Vidljivost: 10 km
Cloud details: Partly Cloudy 427 m
Mostly Cloudy 701 m
2023/02/04 08:00 LYNI 040800Z 26004KT 220V290 9999 -RA SCT014 BKN023 04/03 Q1015 NOSIG
BKPR - Priština, Srbija
Ažurirano: 04/02/2023 09:00
Mostly Cloudy
Mostly Cloudy
 Pravac vetra JZ
Vetar: JZ 28 km/h
Temperatura: 4°C
Osećaj hladnoće: -1°C
Tačka rose: 1°C
Vlažnost: 81%
Pritisak: 1014 hPa
Oblaci: Mostly Cloudy
Vidljivost: 10 km
Cloud details: Mostly Cloudy 1524 m
2023/02/04 08:00 BKPR 040800Z 23015KT 9999 BKN050 04/01 Q1014 NOSIG
 
LHPP - Pecs / Pogany, Hungary
Ažurirano: 04/02/2023 08:45
Vedro
Vedro
 Pravac vetra SZ
Vetar: SZ 43 km/h, Maks.: 61 km/h
Temperatura: 4°C
Osećaj hladnoće: -2°C
Tačka rose: 0°C
Vlažnost: 75%
Pritisak: 1016 hPa
Pregled: Vedro
Vidljivost: greater than 10 km
2023/02/04 07:45 LHPP 040745Z AUTO 32023G33KT 290V350 CAVOK 04/M00 Q1016
LHUD - Szeged, Hungary
Ažurirano: 04/07/2019 01:45
NOT Current
Vedro
Vedro
 Pravac vetra S
Vetar: S 7 km/h
Temperatura: 18°C
Tačka rose: 13°C
Vlažnost: 73%
Pritisak: 1019 hPa
Pregled: Vedro
Vidljivost: greater than 10 km
2019/07/03 23:45 LHUD 032345Z 35004KT CAVOK 18/13 Q1019
LRTR - Timisoara, Romania
Ažurirano: 04/02/2023 08:30
Slaba kiša, Oblačno
Slaba kiša, Oblačno
 Pravac vetra Z
Vetar: Z 13 km/h
Temperatura: 3°C
Osećaj hladnoće: -1°C
Tačka rose: 3°C
Vlažnost: 100%
Pritisak: 1012 hPa
Pregled: Light Rain
Oblaci: Oblačno
Vidljivost: 10 km
Cloud details: Few Clouds 549 m
Mostly Cloudy 610 m
Oblačno 1494 m
2023/02/04 07:30 LRTR 040730Z 28007KT 9999 -RA FEW018 BKN020 OVC049 03/03 Q1012
 
LRCV - Craiova, Romania
Ažurirano: 04/02/2023 08:30
Vedro
Vedro
 Pravac vetra ZSZ
Vetar: ZSZ 22 km/h
Temperatura: 5°C
Osećaj hladnoće: 1°C
Tačka rose: 0°C
Vlažnost: 70%
Pritisak: 1009 hPa
Pregled: Vedro
Vidljivost: greater than 10 km
2023/02/04 07:30 LRCV 040730Z 29012KT CAVOK 05/00 Q1009
LBSF - Sofia, Bulgaria
Ažurirano: 04/02/2023 09:00
Mostly Cloudy
Mostly Cloudy
 Pravac vetra Z
Vetar: Z 28 km/h
Temperatura: 4°C
Osećaj hladnoće: -1°C
Tačka rose: -2°C
Vlažnost: 65%
Pritisak: 1012 hPa
Oblaci: Mostly Cloudy
Vidljivost: 10 km
Cloud details: Partly Cloudy 823 m
Mostly Cloudy 1189 m
2023/02/04 08:00 LBSF 040800Z 27015KT 9999 SCT027 BKN039 04/M02 Q1012 NOSIG
LWSK - Skoplje, Makedonija
Ažurirano: 04/02/2023 08:30
Mostly Cloudy
Mostly Cloudy
 Pravac vetra I
Vetar: I 6 km/h
Temperatura: 1°C
Tačka rose: 0°C
Vlažnost: 93%
Pritisak: 1016 hPa
Oblaci: Mostly Cloudy
Vidljivost: 10 km
Cloud details: Few Clouds 1006 m
Mostly Cloudy 2134 m
2023/02/04 07:30 LWSK 040730Z 09003KT 9999 FEW033 BKN070 01/00 Q1016 NOSIG
 
LYPG - Podgorica, Crna Gora
Ažurirano: 04/02/2023 09:00
Mostly Cloudy
Mostly Cloudy
 Pravac vetra varies
Vetar: varies 4 km/h
Temperatura: 6°C
Tačka rose: -1°C
Vlažnost: 61%
Pritisak: 1018 hPa
Oblaci: Mostly Cloudy
Vidljivost: 10 km
Cloud details: Few Clouds 1219 m
Mostly Cloudy 1524 m
2023/02/04 08:00 LYPG 040800Z VRB02KT 9999 FEW040 BKN050 06/M01 Q1018 NOSIG
LQSA - Sarajevo, Bosna i Hercegovina
Ažurirano: 04/02/2023 09:00
Slaba kiša, Oblačno
Slaba kiša, Oblačno
 Pravac vetra varies
Vetar: varies 6 km/h
Temperatura: 2°C
Tačka rose: 2°C
Vlažnost: 100%
Pritisak: 1017 hPa
Pregled: Light Rain
Oblaci: Oblačno
Vidljivost: 8 km
Cloud details: Few Clouds 152 m
Partly Cloudy 762 m
Oblačno 1219 m
2023/02/04 08:00 LQSA 040800Z VRB03KT 8000 -RA FEW005 SCT025 OVC040 02/02 Q1017 NOSIG
LDOS - Osijek, Hrvatksa
Ažurirano: 04/02/2023 09:00
Mostly Cloudy
Mostly Cloudy
 Pravac vetra SZ
Vetar: SZ 67 km/h, Maks.: 87 km/h
Temperatura: 5°C
Osećaj hladnoće: -2°C
Tačka rose: 0°C
Vlažnost: 70%
Pritisak: 1016 hPa
Oblaci: Mostly Cloudy
Vidljivost: 10 km
Cloud details: Few Clouds 701 m
Mostly Cloudy 1006 m
2023/02/04 08:00 LDOS 040800Z 32036G47KT 9999 FEW023TCU BKN033 05/M00 Q1016